Bolu, Turkey
Current Conditions -  °F | °C
As of 8:50 PM on Friday 24 Oct 2014 (Local Time) from LTBQ Reporting Station
Broken Clouds Broken Clouds  
Wind Chill: 63°   Ceiling: 10000
Heat Index: 63°   Visibility: 6mi
Dew Point: 57°   Wind: 7mph
Humidity: 82%   Direction: 10°N
Pressure: 29.91"   Gusts: NA
Location:  40.75°N, 31.61°E
Report Text: LTBQ 241750Z 01006KT 9999 SCT035 BKN100 17/14 Q1013 NOSIG RMKRWY09 04009KT
Loading
Personal Weather Stations






























Interactive Weather Map
Tropical Storm Tracking
New forecast layout! Learn more

10-Day Weather Forecast

Advertisements
Track Severe Weather on mobile